createdAt,value
2023-05-13T00:00:55.836Z,1.13
2023-05-13T00:03:22.457Z,1.45
2023-05-13T00:05:49.181Z,1.48
2023-05-13T00:08:16.599Z,1.10
2023-05-13T00:10:43.101Z,1.33
2023-05-13T00:13:09.575Z,2.13
2023-05-13T00:15:36.046Z,2.00
2023-05-13T00:18:02.473Z,1.60
2023-05-13T00:20:29.092Z,1.70
2023-05-13T00:22:55.606Z,1.50
2023-05-13T00:25:22.061Z,1.23
2023-05-13T00:27:48.461Z,1.27
2023-05-13T00:30:17.199Z,1.70
2023-05-13T00:32:43.724Z,1.85
2023-05-13T00:35:12.740Z,1.90
2023-05-13T00:37:39.080Z,2.75
2023-05-13T00:40:06.172Z,2.05
2023-05-13T00:42:32.542Z,2.58
2023-05-13T00:44:58.964Z,2.22
2023-05-13T00:47:27.851Z,2.25
2023-05-13T00:49:54.712Z,2.05
2023-05-13T00:52:21.115Z,2.28
2023-05-13T00:54:52.446Z,1.83
2023-05-13T00:57:18.851Z,1.73
2023-05-13T00:59:45.505Z,1.88
2023-05-13T01:02:34.710Z,1.67
2023-05-13T01:05:32.456Z,2.10
2023-05-13T01:08:26.906Z,2.20
2023-05-13T01:10:57.649Z,2.22
2023-05-13T01:13:27.079Z,2.00
2023-05-13T01:16:38.493Z,2.45
2023-05-13T01:19:32.434Z,1.73
2023-05-13T01:22:01.258Z,2.38
2023-05-13T01:24:27.653Z,2.75
2023-05-13T01:26:58.968Z,2.92
2023-05-13T01:29:25.728Z,3.00
2023-05-13T01:31:53.555Z,2.03
2023-05-13T01:34:22.595Z,3.05
2023-05-13T01:36:49.131Z,3.25
2023-05-13T01:39:18.295Z,3.53
2023-05-13T01:41:44.825Z,3.03
2023-05-13T01:44:11.673Z,2.53
2023-05-13T01:46:39.140Z,3.20
2023-05-13T01:49:07.687Z,2.65
2023-05-13T01:51:37.835Z,2.67
2023-05-13T01:54:05.094Z,2.42
2023-05-13T01:56:34.727Z,2.97
2023-05-13T01:59:03.569Z,2.60
2023-05-13T02:01:30.250Z,2.60
2023-05-13T02:03:59.905Z,3.28
2023-05-13T02:06:27.956Z,2.42
2023-05-13T02:08:54.871Z,2.92
2023-05-13T02:11:26.062Z,2.65
2023-05-13T02:13:52.665Z,2.87
2023-05-13T02:16:20.210Z,2.47
2023-05-13T02:18:46.839Z,2.80
2023-05-13T02:21:13.344Z,2.03
2023-05-13T02:23:40.028Z,3.67
2023-05-13T02:26:06.481Z,3.42
2023-05-13T02:28:32.908Z,2.33
2023-05-13T02:30:59.845Z,2.40
2023-05-13T02:33:26.497Z,2.47
2023-05-13T02:35:52.989Z,2.30
2023-05-13T02:38:19.434Z,2.15
2023-05-13T02:40:45.834Z,2.95
2023-05-13T02:43:12.225Z,2.50
2023-05-13T02:45:40.813Z,3.35
2023-05-13T02:48:11.050Z,3.35
2023-05-13T02:50:41.061Z,2.70
2023-05-13T02:53:09.782Z,2.97
2023-05-13T02:55:36.212Z,2.90
2023-05-13T02:58:02.878Z,2.70
2023-05-13T03:00:32.019Z,2.30
2023-05-13T03:02:58.571Z,2.95
2023-05-13T03:05:25.081Z,2.22
2023-05-13T03:07:51.564Z,2.22
2023-05-13T03:10:23.201Z,2.90
2023-05-13T03:12:49.987Z,2.65
2023-05-13T03:15:19.275Z,1.80
2023-05-13T03:17:50.706Z,2.33
2023-05-13T03:20:19.310Z,1.95
2023-05-13T03:22:45.863Z,2.38
2023-05-13T03:25:14.655Z,2.10
2023-05-13T03:27:41.058Z,1.95
2023-05-13T03:30:08.003Z,2.13
2023-05-13T03:32:35.211Z,2.35
2023-05-13T03:35:01.752Z,1.88
2023-05-13T03:37:28.278Z,2.65
2023-05-13T03:39:54.693Z,2.20
2023-05-13T03:42:23.676Z,2.25
2023-05-13T03:44:51.247Z,1.80
2023-05-13T03:47:18.005Z,3.65
2023-05-13T03:49:44.553Z,3.25
2023-05-13T03:52:13.779Z,2.38
2023-05-13T03:54:40.357Z,2.28
2023-05-13T03:57:08.349Z,2.08
2023-05-13T03:59:34.855Z,2.28
2023-05-13T04:02:03.703Z,2.00
2023-05-13T04:04:32.787Z,2.38
2023-05-13T04:06:59.213Z,2.55
2023-05-13T04:09:25.820Z,1.95
2023-05-13T04:11:52.210Z,2.58
2023-05-13T04:14:19.301Z,1.55
2023-05-13T04:16:45.790Z,2.22
2023-05-13T04:19:12.472Z,1.92
2023-05-13T04:21:41.245Z,2.53
2023-05-13T04:24:07.783Z,2.10
2023-05-13T04:26:37.719Z,1.77
2023-05-13T04:29:04.365Z,1.92
2023-05-13T04:31:32.167Z,2.67
2023-05-13T04:33:58.562Z,2.33
2023-05-13T04:36:24.983Z,2.20
2023-05-13T04:38:51.391Z,1.95
2023-05-13T04:41:17.783Z,1.90
2023-05-13T04:43:44.164Z,1.70
2023-05-13T04:46:10.578Z,2.40
2023-05-13T04:48:37.074Z,2.50
2023-05-13T04:51:08.672Z,1.85
2023-05-13T04:53:35.965Z,2.10
2023-05-13T04:56:02.302Z,2.33
2023-05-13T04:58:31.854Z,2.30
2023-05-13T05:00:58.315Z,2.75
2023-05-13T05:03:24.812Z,4.05
2023-05-13T05:05:54.431Z,3.88
2023-05-13T05:08:21.025Z,2.92
2023-05-13T05:10:47.468Z,3.47
2023-05-13T05:13:13.990Z,3.05
2023-05-13T05:15:41.532Z,3.50
2023-05-13T05:18:08.120Z,3.95
2023-05-13T05:20:34.853Z,3.78
2023-05-13T05:23:01.544Z,3.58
2023-05-13T05:25:28.272Z,4.20
2023-05-13T05:27:57.156Z,3.33
2023-05-13T05:30:23.971Z,4.18
2023-05-13T05:32:52.990Z,3.50
2023-05-13T05:35:19.858Z,3.60
2023-05-13T05:37:46.688Z,2.95
2023-05-13T05:40:13.601Z,2.65
2023-05-13T05:42:42.361Z,2.30
2023-05-13T05:45:09.168Z,2.95
2023-05-13T05:47:38.104Z,2.45
2023-05-13T05:50:05.322Z,2.33
2023-05-13T05:52:31.848Z,2.20
2023-05-13T05:54:58.465Z,2.38
2023-05-13T05:57:24.820Z,2.33
2023-05-13T05:59:53.868Z,2.47
2023-05-13T06:02:20.237Z,2.10
2023-05-13T06:04:46.735Z,1.80
2023-05-13T06:07:13.457Z,1.42
2023-05-13T06:09:40.458Z,1.80
2023-05-13T06:12:11.396Z,2.00
2023-05-13T06:14:38.089Z,1.67
2023-05-13T06:17:07.199Z,1.38
2023-05-13T06:19:33.880Z,1.73
2023-05-13T06:22:02.593Z,1.80
2023-05-13T06:24:30.239Z,1.60
2023-05-13T06:26:56.590Z,1.75
2023-05-13T06:29:22.985Z,1.80
2023-05-13T06:31:54.365Z,1.30
2023-05-13T06:34:20.785Z,1.75
2023-05-13T06:36:47.284Z,1.65
2023-05-13T06:39:13.797Z,1.80
2023-05-13T06:41:40.833Z,1.88
2023-05-13T06:44:07.674Z,1.40
2023-05-13T06:46:34.252Z,1.77
2023-05-13T06:49:00.650Z,1.80
2023-05-13T06:51:27.784Z,1.60
2023-05-13T06:53:55.678Z,1.30
2023-05-13T06:56:23.091Z,1.95
2023-05-13T06:58:55.310Z,1.60
2023-05-13T07:01:21.817Z,1.80
2023-05-13T07:03:50.932Z,1.60
2023-05-13T07:06:19.958Z,1.75
2023-05-13T07:08:46.338Z,1.65
2023-05-13T07:11:12.691Z,1.35
2023-05-13T07:13:41.363Z,1.67
2023-05-13T07:16:07.752Z,1.60
2023-05-13T07:18:34.275Z,1.55
2023-05-13T07:21:00.866Z,1.55
2023-05-13T07:23:27.529Z,2.58
2023-05-13T07:25:57.065Z,1.83
2023-05-13T07:28:23.799Z,1.48
2023-05-13T07:30:53.718Z,1.75
2023-05-13T07:33:20.216Z,1.38
2023-05-13T07:35:49.395Z,1.52
2023-05-13T07:38:16.352Z,1.40
2023-05-13T07:40:42.707Z,1.17
2023-05-13T07:43:13.499Z,1.60
2023-05-13T07:45:40.207Z,1.58
2023-05-13T07:48:06.680Z,1.40
2023-05-13T07:50:33.135Z,1.70
2023-05-13T07:52:59.535Z,1.10
2023-05-13T07:55:26.228Z,1.23
2023-05-13T07:57:53.713Z,1.35
2023-05-13T08:00:20.354Z,1.20
2023-05-13T08:02:46.829Z,1.60
2023-05-13T08:05:13.502Z,1.23
2023-05-13T08:07:40.059Z,1.70
2023-05-13T08:10:06.929Z,1.60
2023-05-13T08:12:33.412Z,1.42
2023-05-13T08:15:03.872Z,1.98
2023-05-13T08:17:30.360Z,1.40
2023-05-13T08:19:56.865Z,1.45
2023-05-13T08:22:23.218Z,1.60
2023-05-13T08:24:49.741Z,1.40
2023-05-13T08:27:17.203Z,1.45
2023-05-13T08:29:45.092Z,1.50
2023-05-13T08:32:12.255Z,1.33
2023-05-13T08:34:40.117Z,1.50
2023-05-13T08:37:06.500Z,1.25
2023-05-13T08:39:32.865Z,1.50
2023-05-13T08:42:00.101Z,1.88
2023-05-13T08:44:29.206Z,1.50
2023-05-13T08:47:14.644Z,1.50
2023-05-13T08:49:44.506Z,1.58
2023-05-13T08:52:10.848Z,1.83
2023-05-13T08:54:38.628Z,1.35
2023-05-13T08:57:05.208Z,1.10
2023-05-13T08:59:34.173Z,1.45
2023-05-13T09:02:03.324Z,1.30
2023-05-13T09:04:30.012Z,1.20
2023-05-13T09:06:56.567Z,1.52
2023-05-13T09:09:23.309Z,1.63
2023-05-13T09:11:49.667Z,2.35
2023-05-13T09:16:47.727Z,1.50
2023-05-13T09:19:16.659Z,1.48
2023-05-13T09:21:44.268Z,1.10
2023-05-13T09:24:18.711Z,1.40
2023-05-13T09:26:46.194Z,1.63
2023-05-13T09:29:20.081Z,1.45
2023-05-13T09:31:48.928Z,1.42
2023-05-13T09:34:24.080Z,1.65
2023-05-13T09:37:05.160Z,1.27
2023-05-13T09:39:39.777Z,1.30
2023-05-13T09:42:14.567Z,1.35
2023-05-13T09:44:41.046Z,1.10
2023-05-13T09:47:11.235Z,2.75
2023-05-13T09:49:43.373Z,2.17
2023-05-13T09:52:12.593Z,1.45
2023-05-13T09:54:39.316Z,1.58
2023-05-13T09:57:06.383Z,1.33
2023-05-13T09:59:39.411Z,1.23
2023-05-13T10:02:07.893Z,1.10
2023-05-13T10:04:34.363Z,1.30
2023-05-13T10:07:04.050Z,1.35
2023-05-13T10:09:36.539Z,1.45
2023-05-13T10:12:08.560Z,1.20
2023-05-13T10:14:37.328Z,1.33
2023-05-13T10:17:07.187Z,1.67
2023-05-13T10:19:34.278Z,1.35
2023-05-13T10:22:04.200Z,1.40
2023-05-13T10:24:33.516Z,1.55
2023-05-13T10:27:01.748Z,1.20
2023-05-13T10:29:29.129Z,1.13
2023-05-13T10:31:56.009Z,1.30
2023-05-13T10:34:23.339Z,1.20
2023-05-13T10:36:55.934Z,1.40
2023-05-13T10:39:39.739Z,1.10
2023-05-13T10:42:53.729Z,1.15
2023-05-13T10:45:20.333Z,1.65
2023-05-13T10:47:50.634Z,1.45
2023-05-13T10:50:26.419Z,1.48
2023-05-13T10:52:58.090Z,1.10
2023-05-13T10:55:27.072Z,1.33
2023-05-13T10:58:15.503Z,1.40
2023-05-13T11:00:45.428Z,1.30
2023-05-13T11:03:31.087Z,1.00
2023-05-13T11:06:23.663Z,1.10
2023-05-13T11:08:55.945Z,1.35
2023-05-13T11:11:22.820Z,1.30
2023-05-13T11:14:08.848Z,0.98
2023-05-13T11:16:36.300Z,1.20
2023-05-13T11:19:04.290Z,1.20
2023-05-13T11:21:39.619Z,1.10
2023-05-13T11:24:08.790Z,1.25
2023-05-13T11:26:54.216Z,1.10
2023-05-13T11:29:30.789Z,0.95
2023-05-13T11:32:00.252Z,1.67
2023-05-13T11:34:27.554Z,1.70
2023-05-13T11:37:04.374Z,1.30
2023-05-13T11:39:33.372Z,0.95
2023-05-13T11:42:03.961Z,1.33
2023-05-13T11:44:34.172Z,1.25
2023-05-13T11:47:08.344Z,1.25
2023-05-13T11:49:46.384Z,1.15
2023-05-13T11:52:17.743Z,1.33
2023-05-13T11:54:48.554Z,1.48
2023-05-13T11:57:17.856Z,1.58
2023-05-13T11:59:58.126Z,1.40
2023-05-13T12:02:27.480Z,1.10
2023-05-13T12:04:54.732Z,1.33
2023-05-13T12:07:22.960Z,1.20
2023-05-13T12:09:50.243Z,1.25
2023-05-13T12:12:17.707Z,1.25
2023-05-13T12:14:46.257Z,0.90
2023-05-13T12:17:17.387Z,1.20
2023-05-13T12:20:16.210Z,1.30
2023-05-13T12:22:42.515Z,1.25
2023-05-13T12:25:47.802Z,1.50
2023-05-13T12:28:19.314Z,1.40
2023-05-13T12:31:00.794Z,1.23
2023-05-13T12:33:32.446Z,1.20
2023-05-13T12:39:00.496Z,1.30
2023-05-13T12:41:32.551Z,1.30
2023-05-13T12:44:02.225Z,1.35
2023-05-13T12:46:29.046Z,1.40
2023-05-13T12:48:57.111Z,1.90
2023-05-13T12:51:24.250Z,2.35
2023-05-13T12:53:50.833Z,1.70
2023-05-13T12:56:17.343Z,1.70
2023-05-13T12:58:43.775Z,1.65
2023-05-13T13:01:10.213Z,1.65
2023-05-13T13:03:36.774Z,1.40
2023-05-13T13:06:03.348Z,1.73
2023-05-13T13:08:30.727Z,1.73
2023-05-13T13:10:59.259Z,1.83
2023-05-13T13:13:25.678Z,1.30
2023-05-13T13:15:54.440Z,1.30
2023-05-13T13:18:21.044Z,1.55
2023-05-13T13:20:47.535Z,1.30
2023-05-13T13:23:13.988Z,1.15
2023-05-13T13:25:40.814Z,1.13
2023-05-13T13:28:07.305Z,1.30
2023-05-13T13:30:33.762Z,1.13
2023-05-13T13:33:00.292Z,1.42
2023-05-13T13:35:26.905Z,1.42
2023-05-13T13:37:54.377Z,1.23
2023-05-13T13:40:21.065Z,1.10
2023-05-13T13:42:49.908Z,0.95
2023-05-13T13:45:16.530Z,1.10
2023-05-13T13:47:45.356Z,1.83
2023-05-13T13:50:11.949Z,1.30
2023-05-13T13:52:43.360Z,1.40
2023-05-13T13:55:12.418Z,1.30
2023-05-13T13:57:41.175Z,1.13
2023-05-13T14:00:08.138Z,1.48
2023-05-13T14:02:34.749Z,1.42
2023-05-13T14:05:01.366Z,0.90
2023-05-13T14:07:28.002Z,1.30
2023-05-13T14:09:54.551Z,1.10
2023-05-13T14:12:20.937Z,1.08
2023-05-13T14:14:47.328Z,1.00
2023-05-13T14:17:14.481Z,1.48
2023-05-13T14:19:40.914Z,1.10
2023-05-13T14:22:07.278Z,1.38
2023-05-13T14:24:33.679Z,1.27
2023-05-13T14:27:00.198Z,1.23
2023-05-13T14:29:27.678Z,1.20
2023-05-13T14:31:56.732Z,1.23
2023-05-13T14:34:27.737Z,1.27
2023-05-13T14:36:54.214Z,1.48
2023-05-13T14:39:20.634Z,1.30
2023-05-13T14:41:47.137Z,0.93
2023-05-13T14:44:13.937Z,1.00
2023-05-13T14:46:41.242Z,1.73
2023-05-13T14:49:08.501Z,1.50
2023-05-13T14:51:35.456Z,1.20
2023-05-13T14:54:02.712Z,1.35
2023-05-13T14:56:33.711Z,1.17
2023-05-13T14:59:02.188Z,1.15
2023-05-13T15:01:28.728Z,1.45
2023-05-13T15:03:55.731Z,1.63
2023-05-13T15:06:24.761Z,1.48
2023-05-13T15:08:51.166Z,1.45
2023-05-13T15:11:17.518Z,2.08
2023-05-13T15:13:43.897Z,2.15
2023-05-13T15:16:11.553Z,2.00
2023-05-13T15:18:40.887Z,1.15
2023-05-13T15:21:07.289Z,1.20
2023-05-13T15:23:33.821Z,1.42
2023-05-13T15:26:00.174Z,1.40
2023-05-13T15:28:26.531Z,1.75
2023-05-13T15:30:53.096Z,1.27
2023-05-13T15:33:19.567Z,1.17
2023-05-13T15:35:46.073Z,1.90
2023-05-13T15:38:12.559Z,1.60
2023-05-13T15:40:39.117Z,1.50
2023-05-13T15:43:05.562Z,1.38
2023-05-13T15:45:32.153Z,1.30
2023-05-13T15:47:58.540Z,1.33
2023-05-13T15:50:26.073Z,1.55
2023-05-13T15:52:57.688Z,1.27
2023-05-13T15:55:24.120Z,1.20
2023-05-13T15:57:50.806Z,1.25
2023-05-13T16:00:18.100Z,1.27
2023-05-13T16:02:44.645Z,1.38
2023-05-13T16:05:15.680Z,1.27
2023-05-13T16:07:42.521Z,1.70
2023-05-13T16:10:09.440Z,1.30
2023-05-13T16:12:36.155Z,2.40
2023-05-13T16:15:06.356Z,1.50
2023-05-13T16:17:33.176Z,1.20
2023-05-13T16:19:59.906Z,1.45
2023-05-13T16:22:38.242Z,1.17
2023-05-13T16:25:09.443Z,1.25
2023-05-13T16:27:36.818Z,1.27
2023-05-13T16:30:05.262Z,1.55
2023-05-13T16:32:33.151Z,1.25
2023-05-13T16:35:01.446Z,1.30
2023-05-13T16:37:28.372Z,2.13
2023-05-13T16:39:54.848Z,2.55
2023-05-13T16:42:21.237Z,1.77
2023-05-13T16:44:48.048Z,1.70
2023-05-13T16:47:14.567Z,1.63
2023-05-13T16:49:41.020Z,1.85
2023-05-13T16:52:07.696Z,1.48
2023-05-13T16:54:34.423Z,1.40
2023-05-13T16:57:00.981Z,1.55
2023-05-13T16:59:28.446Z,2.00
2023-05-13T17:01:59.450Z,1.60
2023-05-13T17:04:26.663Z,1.43
2023-05-13T17:06:57.561Z,1.58
2023-05-13T17:09:25.844Z,1.52
2023-05-13T17:11:52.187Z,1.60
2023-05-13T17:14:18.668Z,1.83
2023-05-13T17:16:47.515Z,2.00
2023-05-13T17:19:16.486Z,1.75
2023-05-13T17:21:45.145Z,1.50
2023-05-13T17:24:11.688Z,1.40
2023-05-13T17:26:40.901Z,1.50
2023-05-13T17:29:07.506Z,1.75
2023-05-13T17:31:34.038Z,2.10
2023-05-13T17:34:00.491Z,2.10
2023-05-13T17:36:26.887Z,1.70
2023-05-13T17:38:53.319Z,1.50
2023-05-13T17:41:19.791Z,1.73
2023-05-13T17:43:46.207Z,2.20
2023-05-13T17:46:12.645Z,1.83
2023-05-13T17:48:39.292Z,1.67
2023-05-13T17:51:05.970Z,1.75
2023-05-13T17:53:34.508Z,1.60
2023-05-13T17:56:01.476Z,1.92
2023-05-13T17:58:30.657Z,1.65
2023-05-13T18:00:57.171Z,1.75
2023-05-13T18:03:26.676Z,1.77
2023-05-13T18:05:55.804Z,1.63
2023-05-13T18:08:22.201Z,1.35
2023-05-13T18:10:48.719Z,1.48
2023-05-13T18:13:15.374Z,1.55
2023-05-13T18:15:41.879Z,1.33
2023-05-13T18:18:08.361Z,1.80
2023-05-13T18:20:34.885Z,1.80
2023-05-13T18:23:01.428Z,1.35
2023-05-13T18:25:27.861Z,1.70
2023-05-13T18:27:54.557Z,1.65
2023-05-13T18:30:21.317Z,1.50
2023-05-13T18:32:48.184Z,1.90
2023-05-13T18:35:16.103Z,1.65
2023-05-13T18:37:42.873Z,1.05
2023-05-13T18:40:09.984Z,2.17
2023-05-13T18:42:36.471Z,1.90
2023-05-13T18:45:02.889Z,1.83
2023-05-13T18:47:29.395Z,1.92
2023-05-13T18:49:55.914Z,1.83
2023-05-13T18:52:22.369Z,2.53
2023-05-13T18:54:51.133Z,1.90
2023-05-13T18:57:17.906Z,2.35
2023-05-13T18:59:46.649Z,2.00
2023-05-13T19:02:13.225Z,2.10
2023-05-13T19:04:40.529Z,2.50
2023-05-13T19:07:07.066Z,2.35
2023-05-13T19:09:36.325Z,1.65
2023-05-13T19:12:03.363Z,1.90
2023-05-13T19:14:29.777Z,2.30
2023-05-13T19:16:56.396Z,2.45
2023-05-13T19:19:24.330Z,2.00
2023-05-13T19:21:55.725Z,2.30
2023-05-13T19:24:22.193Z,2.65
2023-05-13T19:26:51.940Z,2.30
2023-05-13T19:29:18.597Z,2.10
2023-05-13T19:31:45.138Z,2.25
2023-05-13T19:34:11.958Z,2.22
2023-05-13T19:36:38.348Z,2.63
2023-05-13T19:39:04.769Z,1.83
2023-05-13T19:41:31.374Z,2.00
2023-05-13T19:43:57.735Z,1.77
2023-05-13T19:46:24.334Z,1.73
2023-05-13T19:48:50.754Z,2.40
2023-05-13T19:51:18.026Z,1.77
2023-05-13T19:53:44.411Z,2.63
2023-05-13T19:56:11.258Z,2.85
2023-05-13T19:58:37.950Z,3.70
2023-05-13T20:01:06.700Z,2.78
2023-05-13T20:03:35.752Z,2.13
2023-05-13T20:06:02.626Z,2.97
2023-05-13T20:08:33.068Z,2.47
2023-05-13T20:10:59.704Z,2.30
2023-05-13T20:13:26.058Z,2.13
2023-05-13T20:15:52.526Z,2.20
2023-05-13T20:18:19.282Z,1.70
2023-05-13T20:20:46.867Z,2.65
2023-05-13T20:23:15.653Z,2.60
2023-05-13T20:25:42.278Z,2.95
2023-05-13T20:28:08.659Z,2.45
2023-05-13T20:30:35.175Z,2.33
2023-05-13T20:33:02.004Z,2.35
2023-05-13T20:35:28.488Z,3.17
2023-05-13T20:37:58.449Z,3.70
2023-05-13T20:40:25.085Z,3.13
2023-05-13T20:42:52.421Z,3.28
2023-05-13T20:45:19.066Z,3.20
2023-05-13T20:47:45.754Z,3.53
2023-05-13T20:50:12.411Z,3.05
2023-05-13T20:52:41.501Z,3.25
2023-05-13T20:55:11.409Z,2.15
2023-05-13T20:57:40.499Z,2.92
2023-05-13T21:00:07.804Z,2.42
2023-05-13T21:02:34.256Z,2.20
2023-05-13T21:05:00.635Z,2.33
2023-05-13T21:07:27.042Z,2.35
2023-05-13T21:09:55.686Z,3.00
2023-05-13T21:12:25.654Z,2.58
2023-05-13T21:14:52.019Z,2.00
2023-05-13T21:17:24.591Z,2.75
2023-05-13T21:19:51.195Z,1.60
2023-05-13T21:22:17.869Z,1.90
2023-05-13T21:24:46.535Z,3.22
2023-05-13T21:27:12.981Z,2.30
2023-05-13T21:29:39.417Z,1.98
2023-05-13T21:32:06.598Z,2.22
2023-05-13T21:34:33.081Z,2.05
2023-05-13T21:36:59.429Z,3.83
2023-05-13T21:39:25.980Z,1.95
2023-05-13T21:41:52.313Z,2.15
2023-05-13T21:44:18.669Z,2.63
2023-05-13T21:46:45.124Z,2.28
2023-05-13T21:49:12.000Z,3.45
2023-05-13T21:51:38.558Z,3.03
2023-05-13T21:54:04.971Z,3.00
2023-05-13T21:56:31.327Z,3.05
2023-05-13T21:59:05.297Z,2.70
2023-05-13T22:01:31.643Z,4.55
2023-05-13T22:04:00.312Z,2.55
2023-05-13T22:06:26.804Z,1.85
2023-05-13T22:08:53.186Z,3.17
2023-05-13T22:11:19.575Z,2.13
2023-05-13T22:13:46.254Z,2.17
2023-05-13T22:16:14.343Z,3.92
2023-05-13T22:18:41.267Z,3.25
2023-05-13T22:21:07.804Z,4.25
2023-05-13T22:23:34.269Z,3.22
2023-05-13T22:26:00.734Z,3.90
2023-05-13T22:28:29.697Z,3.42
2023-05-13T22:30:58.544Z,5.20
2023-05-13T22:33:24.954Z,3.38
2023-05-13T22:35:51.480Z,4.15
2023-05-13T22:38:20.227Z,3.95
2023-05-13T22:40:46.636Z,3.85
2023-05-13T22:43:15.761Z,3.60
2023-05-13T22:45:42.184Z,3.10
2023-05-13T22:48:08.635Z,2.70
2023-05-13T22:50:35.607Z,3.08
2023-05-13T22:53:04.489Z,3.00
2023-05-13T22:55:30.901Z,3.00
2023-05-13T22:57:57.378Z,2.25
2023-05-13T23:00:24.157Z,4.30
2023-05-13T23:02:50.824Z,2.85
2023-05-13T23:05:17.509Z,4.40
2023-05-13T23:07:43.865Z,3.03
2023-05-13T23:10:10.658Z,3.10
2023-05-13T23:12:37.758Z,3.97
2023-05-13T23:15:04.988Z,3.55
2023-05-13T23:17:34.081Z,3.42
2023-05-13T23:20:00.853Z,3.65
2023-05-13T23:22:27.223Z,5.45
2023-05-13T23:24:53.607Z,5.00
2023-05-13T23:27:20.135Z,4.03
2023-05-13T23:29:46.587Z,3.10
2023-05-13T23:32:13.101Z,3.10
2023-05-13T23:34:39.689Z,3.03
2023-05-13T23:37:08.248Z,2.70
2023-05-13T23:39:34.627Z,2.45
2023-05-13T23:42:01.121Z,3.47
2023-05-13T23:44:27.727Z,2.70
2023-05-13T23:46:54.166Z,1.95
2023-05-13T23:49:20.962Z,2.60
2023-05-13T23:51:47.482Z,1.85
2023-05-13T23:54:16.617Z,2.72
2023-05-13T23:56:43.142Z,2.60
2023-05-13T23:59:09.493Z,2.22
